Time;durP1;ratioP1;P1;durP2;ratioP2;P2;SDS_P1;SDS_P2;PMS_P1;PMS_P2;Temp;Humidity;BMP_temperature;BMP_pressure;BME280_temperature;BME280_humidity;BME280_pressure;Samples;Min_cycle;Max_cycle;Signal;HPM_P1;HPM_P2
2022/07/06 00:02:25;;;;;;;0.40;0.20;;;;;;;19.44;69.52;100919.09;5026188;28;20502;-49
2022/07/06 00:04:52;;;;;;;0.40;0.20;;;;;;;19.47;69.98;100918.94;5028595;28;20499;-48
2022/07/06 00:07:18;;;;;;;0.40;0.20;;;;;;;19.28;70.62;100918.19;5025761;28;20946;-49
2022/07/06 00:09:45;;;;;;;0.40;0.20;;;;;;;19.17;71.11;100916.94;5027441;28;20933;-49
2022/07/06 00:12:11;;;;;;;0.40;0.20;;;;;;;19.11;71.77;100921.81;5021202;28;20971;-50
2022/07/06 00:14:38;;;;;;;0.40;0.20;;;;;;;19.00;71.99;100925.06;5020382;28;20791;-48
2022/07/06 00:17:04;;;;;;;0.40;0.20;;;;;;;18.93;72.86;100920.97;5033801;28;20459;-49
2022/07/06 00:19:31;;;;;;;0.40;0.20;;;;;;;18.80;72.98;100928.84;5020188;28;20579;-49
2022/07/06 00:21:57;;;;;;;0.40;0.20;;;;;;;18.63;73.53;100926.09;5025570;28;20553;-49
2022/07/06 00:24:24;;;;;;;0.40;0.20;;;;;;;18.27;74.59;100928.88;5026999;28;20827;-49
2022/07/06 00:26:50;;;;;;;0.40;0.20;;;;;;;18.38;74.35;100918.44;5021980;28;20543;-49
2022/07/06 00:29:17;;;;;;;0.40;0.20;;;;;;;18.29;74.95;100926.97;5020151;28;20942;-49
2022/07/06 00:31:43;;;;;;;0.40;0.20;;;;;;;18.24;75.32;100919.13;5025360;28;20449;-49
2022/07/06 00:34:10;;;;;;;0.40;0.20;;;;;;;18.13;76.00;100916.09;5028625;28;20452;-48
2022/07/06 00:36:36;;;;;;;0.40;0.30;;;;;;;18.20;75.40;100928.28;5024811;28;20496;-49
2022/07/06 00:39:02;;;;;;;0.40;0.20;;;;;;;18.39;74.05;100916.59;5031141;28;20488;-49
2022/07/06 00:41:29;;;;;;;0.40;0.20;;;;;;;18.33;74.66;100920.47;5043946;28;20462;-49
2022/07/06 00:43:56;;;;;;;0.40;0.20;;;;;;;18.39;74.09;100916.59;5019971;28;20459;-49
2022/07/06 00:46:32;;;;;;;0.40;0.20;;;;;;;18.50;73.52;100919.59;5028275;28;20479;-49
2022/07/06 00:48:59;;;;;;;0.40;0.20;;;;;;;18.45;73.65;100918.97;5029305;28;20444;-49
2022/07/06 00:51:30;;;;;;;0.40;0.20;;;;;;;18.47;73.36;100925.16;5024403;28;20454;-49
2022/07/06 00:54:00;;;;;;;0.40;0.20;;;;;;;18.46;73.38;100923.41;5019677;28;20885;-49
2022/07/06 00:56:29;;;;;;;0.40;0.20;;;;;;;18.40;73.71;100921.91;5020777;28;20490;-49
2022/07/06 00:58:57;;;;;;;0.40;0.20;;;;;;;18.54;72.37;100914.00;5026495;28;20539;-49
2022/07/06 01:01:23;;;;;;;0.40;0.20;;;;;;;18.54;72.17;100924.75;5024991;28;20448;-49
2022/07/06 01:03:50;;;;;;;0.40;0.20;;;;;;;18.51;72.58;100921.38;5019497;28;20510;-49
2022/07/06 01:06:16;;;;;;;0.40;0.20;;;;;;;18.57;72.43;100923.72;5032576;28;21010;-49
2022/07/06 01:08:43;;;;;;;0.40;0.20;;;;;;;18.41;72.78;100920.09;5019745;28;20452;-49
2022/07/06 01:11:10;;;;;;;0.40;0.20;;;;;;;18.31;73.29;100917.84;5020000;28;20460;-49
2022/07/06 01:13:37;;;;;;;0.40;0.20;;;;;;;18.37;73.16;100926.59;5019794;28;20456;-49
2022/07/06 01:16:04;;;;;;;0.40;0.20;;;;;;;18.32;73.35;100924.09;5019617;28;20469;-49
2022/07/06 01:18:30;;;;;;;0.40;0.20;;;;;;;18.26;73.47;100921.75;5025798;28;20488;-49
2022/07/06 01:21:11;;;;;;;0.40;0.20;;;;;;;17.96;74.86;100927.69;5026067;28;20486;-50
2022/07/06 01:23:47;;;;;;;0.40;0.20;;;;;;;17.83;75.47;100929.25;5020823;28;20446;-49
2022/07/06 01:26:18;;;;;;;0.40;0.30;;;;;;;18.10;74.75;100920.75;5019510;28;20478;-49
2022/07/06 01:28:48;;;;;;;0.40;0.20;;;;;;;17.86;75.52;100925.53;5021259;28;20463;-49
2022/07/06 01:31:25;;;;;;;0.40;0.20;;;;;;;17.86;75.74;100922.84;5025780;28;20965;-49
2022/07/06 01:33:55;;;;;;;0.40;0.20;;;;;;;18.07;75.02;100924.44;5026390;28;20526;-50
2022/07/06 01:36:22;;;;;;;0.40;0.20;;;;;;;18.14;74.68;100916.97;5025322;28;20856;-52
2022/07/06 01:38:50;;;;;;;0.40;0.20;;;;;;;17.90;75.81;100922.59;5026829;28;20498;-50
2022/07/06 01:41:18;;;;;;;0.40;0.20;;;;;;;17.88;75.68;100923.63;5044551;28;20490;-50
2022/07/06 01:43:45;;;;;;;0.40;0.20;;;;;;;17.79;76.10;100916.84;5018870;28;20480;-50
2022/07/06 01:46:12;;;;;;;0.40;0.20;;;;;;;17.63;76.83;100916.69;5027200;28;20591;-51
2022/07/06 01:48:39;;;;;;;0.40;0.20;;;;;;;17.12;79.12;100918.16;5030539;28;20476;-51
2022/07/06 01:51:06;;;;;;;0.40;0.20;;;;;;;17.17;79.01;100916.16;5021022;28;20451;-50
2022/07/06 01:53:33;;;;;;;0.40;0.20;;;;;;;17.13;79.44;100917.25;5018705;28;20452;-51
2022/07/06 01:55:59;;;;;;;0.40;0.20;;;;;;;16.93;80.55;100921.78;5023387;28;20854;-51
2022/07/06 01:58:26;;;;;;;0.50;0.30;;;;;;;16.54;81.59;100907.31;5025582;28;20451;-51
2022/07/06 02:00:52;;;;;;;0.40;0.20;;;;;;;16.62;82.03;100920.41;5021719;28;20873;-52
2022/07/06 02:03:19;;;;;;;0.40;0.20;;;;;;;16.61;82.03;100926.72;5018769;28;20467;-52
2022/07/06 02:05:45;;;;;;;0.40;0.20;;;;;;;16.67;81.74;100923.78;5031847;28;20815;-52
2022/07/06 02:08:12;;;;;;;0.40;0.20;;;;;;;16.97;80.35;100915.31;5018821;28;20448;-51
2022/07/06 02:10:38;;;;;;;0.40;0.20;;;;;;;17.38;79.10;100925.03;5022670;28;20452;-52
2022/07/06 02:13:05;;;;;;;0.40;0.20;;;;;;;17.62;77.50;100920.34;5025383;28;20526;-52
2022/07/06 02:15:31;;;;;;;0.40;0.20;;;;;;;17.88;76.73;100919.13;5021849;28;20475;-51
2022/07/06 02:17:58;;;;;;;0.40;0.20;;;;;;;18.18;75.01;100922.09;5018886;28;20451;-52
2022/07/06 02:20:25;;;;;;;0.40;0.20;;;;;;;18.13;74.63;100926.00;5022333;28;20503;-52
2022/07/06 02:22:51;;;;;;;0.40;0.20;;;;;;;18.04;74.45;100921.91;5025140;28;20456;-52
2022/07/06 02:25:18;;;;;;;0.40;0.20;;;;;;;18.24;73.70;100919.13;5021464;28;20478;-51
2022/07/06 02:27:44;;;;;;;0.40;0.20;;;;;;;18.60;71.79;100919.06;5018444;28;20941;-52
2022/07/06 02:30:11;;;;;;;0.40;0.20;;;;;;;18.80;71.11;100911.81;5022261;28;20449;-51
2022/07/06 02:32:37;;;;;;;0.40;0.20;;;;;;;18.66;70.83;100915.22;5025298;28;20544;-52
2022/07/06 02:35:04;;;;;;;0.40;0.20;;;;;;;18.01;73.45;100914.88;5027553;28;20502;-52
2022/07/06 02:37:31;;;;;;;0.40;0.20;;;;;;;18.18;73.41;100919.41;5022345;28;20458;-52
2022/07/06 02:39:57;;;;;;;0.40;0.20;;;;;;;17.87;74.18;100917.38;5044897;28;20994;-52
2022/07/06 02:42:24;;;;;;;0.40;0.20;;;;;;;17.66;75.51;100915.66;5035544;28;20463;-52
2022/07/06 02:44:53;;;;;;;0.40;0.20;;;;;;;17.54;75.67;100919.81;5025504;28;20584;-52
2022/07/06 02:47:19;;;;;;;0.40;0.20;;;;;;;17.64;75.42;100925.63;5026616;28;20979;-52
2022/07/06 02:49:46;;;;;;;0.40;0.20;;;;;;;17.65;75.69;100925.56;5026124;28;20947;-52
2022/07/06 02:52:12;;;;;;;0.40;0.20;;;;;;;17.40;76.62;100927.66;5021894;28;20916;-52
2022/07/06 02:54:39;;;;;;;0.40;0.20;;;;;;;17.32;76.98;100928.03;5024495;28;20456;-51
2022/07/06 02:57:05;;;;;;;0.40;0.20;;;;;;;17.33;77.00;100932.44;5028874;28;20452;-51
2022/07/06 02:59:32;;;;;;;0.40;0.20;;;;;;;17.31;77.16;100930.78;5025009;28;20495;-51
2022/07/06 03:01:58;;;;;;;0.40;0.20;;;;;;;17.47;76.98;100937.19;5021676;28;20506;-52
2022/07/06 03:04:25;;;;;;;0.40;0.20;;;;;;;17.51;75.19;100935.22;5032078;28;20916;-51
2022/07/06 03:06:51;;;;;;;0.53;0.53;;;;;;;17.22;77.30;100941.94;5030692;28;20931;-52
2022/07/06 03:09:18;;;;;;;0.40;0.20;;;;;;;17.93;74.84;100935.88;5025946;28;20477;-51
2022/07/06 03:11:44;;;;;;;0.40;0.20;;;;;;;17.47;76.33;100942.56;5022856;28;20455;-51
2022/07/06 03:14:11;;;;;;;0.40;0.20;;;;;;;17.30;77.47;100945.16;5023898;28;20763;-51
2022/07/06 03:16:37;;;;;;;0.40;0.20;;;;;;;17.39;76.48;100950.97;5028351;28;20468;-51
2022/07/06 03:19:04;;;;;;;0.40;0.20;;;;;;;17.60;75.70;100949.13;5026157;28;20602;-51
2022/07/06 03:21:30;;;;;;;0.40;0.20;;;;;;;17.37;76.74;100960.06;5021416;28;20506;-52
2022/07/06 03:23:57;;;;;;;0.40;0.20;;;;;;;17.52;76.54;100956.66;5042191;28;20452;-51
2022/07/06 03:26:23;;;;;;;0.40;0.20;;;;;;;17.61;76.10;100963.44;5021436;28;20467;-51
2022/07/06 03:28:50;;;;;;;0.40;0.20;;;;;;;17.33;77.25;100961.16;5023549;28;20503;-52
2022/07/06 03:31:16;;;;;;;0.40;0.20;;;;;;;17.44;77.34;100961.53;5028188;28;20452;-51
2022/07/06 03:33:43;;;;;;;0.40;0.20;;;;;;;17.14;77.60;100955.75;5026169;28;20459;-51
2022/07/06 03:36:10;;;;;;;0.40;0.20;;;;;;;17.07;78.15;100963.19;5029682;28;20472;-50
2022/07/06 03:38:36;;;;;;;0.40;0.20;;;;;;;17.03;78.53;100958.03;5026040;28;20452;-52
2022/07/06 03:41:03;;;;;;;0.40;0.20;;;;;;;16.96;79.05;100964.59;5047902;28;20487;-51
2022/07/06 03:43:30;;;;;;;0.40;0.20;;;;;;;17.18;77.96;100958.22;5021979;28;20451;-52
2022/07/06 03:45:56;;;;;;;0.40;0.20;;;;;;;17.17;77.96;100960.97;5027476;28;20512;-52
2022/07/06 03:48:23;;;;;;;0.40;0.20;;;;;;;17.39;76.80;100958.16;5034266;28;20447;-52
2022/07/06 03:50:50;;;;;;;0.40;0.20;;;;;;;17.30;77.38;100966.66;5020785;28;20870;-52
2022/07/06 03:53:17;;;;;;;0.40;0.20;;;;;;;17.14;78.11;100963.81;5021528;28;20455;-52
2022/07/06 03:55:43;;;;;;;0.40;0.20;;;;;;;17.50;76.52;100968.41;5027364;28;20472;-51
2022/07/06 03:58:10;;;;;;;0.40;0.20;;;;;;;17.51;76.65;100973.72;5027479;28;20455;-52
2022/07/06 04:00:36;;;;;;;0.40;0.20;;;;;;;17.98;74.71;100970.66;5021076;28;20527;-51
2022/07/06 04:03:03;;;;;;;0.40;0.20;;;;;;;17.96;74.44;100975.25;5020679;28;20957;-52
2022/07/06 04:05:29;;;;;;;0.40;0.20;;;;;;;17.46;76.55;100978.44;5030428;28;20468;-52
2022/07/06 04:07:56;;;;;;;0.40;0.20;;;;;;;18.00;74.59;100980.41;5020717;28;20463;-51
2022/07/06 04:10:22;;;;;;;0.40;0.20;;;;;;;17.80;75.36;100985.84;5026931;28;20456;-52
2022/07/06 04:12:49;;;;;;;0.50;0.40;;;;;;;18.04;74.40;100984.69;5027242;28;20808;-52
2022/07/06 04:15:15;;;;;;;0.40;0.20;;;;;;;17.88;74.46;100978.28;5021142;28;20482;-52
2022/07/06 04:17:53;;;;;;;0.40;0.20;;;;;;;17.65;75.09;100981.16;5020361;28;20444;-53
2022/07/06 04:20:21;;;;;;;0.40;0.20;;;;;;;17.86;75.18;100982.88;5025062;28;20484;-52
2022/07/06 04:22:49;;;;;;;0.40;0.20;;;;;;;17.82;74.54;100978.59;5026982;28;20893;-52
2022/07/06 04:25:15;;;;;;;0.40;0.20;;;;;;;17.65;75.36;100982.03;5022949;28;20471;-52
2022/07/06 04:27:42;;;;;;;0.40;0.20;;;;;;;17.85;74.62;100988.34;5020319;28;20448;-52
2022/07/06 04:30:09;;;;;;;0.40;0.20;;;;;;;17.69;74.74;100996.25;5023638;28;20448;-52
2022/07/06 04:32:36;;;;;;;0.40;0.20;;;;;;;17.51;75.37;100987.16;5026933;28;20452;-51
2022/07/06 04:35:04;;;;;;;0.40;0.30;;;;;;;18.04;73.70;100991.88;5026267;28;20855;-52
2022/07/06 04:37:31;;;;;;;0.40;0.20;;;;;;;18.79;70.54;100990.88;5020500;28;20448;-52
2022/07/06 04:39:57;;;;;;;0.40;0.20;;;;;;;19.32;67.96;101001.50;5042629;28;20588;-53
2022/07/06 04:42:24;;;;;;;0.40;0.20;;;;;;;19.57;67.87;100994.84;5033076;28;20457;-52
2022/07/06 04:44:53;;;;;;;0.40;0.20;;;;;;;19.57;66.19;101002.94;5023673;28;20471;-52
2022/07/06 04:47:20;;;;;;;0.40;0.20;;;;;;;20.39;62.43;100995.56;5027886;28;20456;-53
2022/07/06 04:49:46;;;;;;;0.40;0.20;;;;;;;20.56;61.73;100994.63;5022674;28;20544;-53
2022/07/06 04:52:13;;;;;;;0.40;0.20;;;;;;;21.00;59.95;100992.84;5026581;28;20452;-53
2022/07/06 04:54:40;;;;;;;0.40;0.20;;;;;;;21.20;58.99;100999.72;5024121;28;20459;-52
2022/07/06 04:57:06;;;;;;;0.40;0.20;;;;;;;21.04;58.78;100996.25;5019703;28;20462;-53
2022/07/06 04:59:38;;;;;;;0.40;0.20;;;;;;;21.25;58.12;100999.50;5021224;28;20489;-52
2022/07/06 05:02:04;;;;;;;0.40;0.20;;;;;;;21.59;56.80;101001.84;5026822;28;20444;-53
2022/07/06 05:04:31;;;;;;;0.40;0.20;;;;;;;22.01;55.52;101012.72;5025083;28;20452;-53
2022/07/06 05:06:58;;;;;;;0.40;0.20;;;;;;;21.59;57.27;101018.06;5027327;28;20456;-52
2022/07/06 05:09:25;;;;;;;0.40;0.20;;;;;;;20.76;58.51;101010.53;5025217;28;20542;-53
2022/07/06 05:11:51;;;;;;;0.40;0.20;;;;;;;21.05;58.25;101021.44;5019329;28;20824;-53
2022/07/06 05:14:18;;;;;;;0.40;0.20;;;;;;;21.66;56.21;101025.81;5020118;28;20448;-53
2022/07/06 05:16:44;;;;;;;0.40;0.20;;;;;;;21.89;54.46;101027.91;5026284;28;20472;-54
2022/07/06 05:19:11;;;;;;;0.40;0.20;;;;;;;21.32;55.18;101030.59;5025524;28;20448;-53
2022/07/06 05:21:37;;;;;;;0.40;0.20;;;;;;;21.63;54.69;101026.00;5019129;28;20585;-53
2022/07/06 05:24:04;;;;;;;0.40;0.20;;;;;;;21.45;55.07;101030.72;5019746;28;20563;-53
2022/07/06 05:26:31;;;;;;;0.40;0.20;;;;;;;21.54;54.22;101030.16;5025693;28;20476;-53
2022/07/06 05:28:57;;;;;;;0.40;0.20;;;;;;;21.15;55.08;101026.19;5025640;28;20479;-53
2022/07/06 05:31:24;;;;;;;0.40;0.20;;;;;;;21.44;54.46;101029.84;5019413;28;20447;-53
2022/07/06 05:33:50;;;;;;;0.40;0.20;;;;;;;21.47;53.61;101035.06;5021882;28;20970;-53
2022/07/06 05:36:17;;;;;;;0.40;0.30;;;;;;;21.08;54.84;101027.53;5025367;28;20476;-53
2022/07/06 05:38:44;;;;;;;0.40;0.20;;;;;;;21.22;54.74;101029.38;5024743;28;20554;-53
2022/07/06 05:41:11;;;;;;;0.40;0.20;;;;;;;21.47;53.00;101018.84;5018829;28;20491;-53
2022/07/06 05:43:37;;;;;;;0.40;0.20;;;;;;;21.43;53.08;101020.00;5018946;28;20456;-51
2022/07/06 05:46:04;;;;;;;0.40;0.20;;;;;;;21.98;52.07;101024.63;5027214;28;20472;-52
2022/07/06 05:51:15;;;;;;;0.40;0.20;;;;;;;22.07;50.39;101017.78;5012656;28;20564;-52
2022/07/06 05:53:42;;;;;;;0.40;0.20;;;;;;;21.64;51.90;101025.88;5025386;28;20455;-52
2022/07/06 05:56:08;;;;;;;0.40;0.20;;;;;;;21.65;51.50;101029.47;5022324;28;20469;-51
2022/07/06 05:58:35;;;;;;;0.40;0.20;;;;;;;21.89;50.38;101025.22;5018914;28;20458;-52
2022/07/06 06:01:01;;;;;;;0.50;0.50;;;;;;;21.92;50.40;101030.41;5029286;28;20577;-53
2022/07/06 06:03:28;;;;;;;0.40;0.20;;;;;;;20.79;53.65;101028.41;5027821;28;20452;-51
2022/07/06 06:05:55;;;;;;;0.40;0.20;;;;;;;19.52;57.13;101044.47;5022032;28;20468;-52
2022/07/06 06:08:21;;;;;;;1.13;1.13;;;;;;;20.82;54.50;101028.22;5018904;28;20443;-52
2022/07/06 06:10:48;;;;;;;0.40;0.20;;;;;;;20.99;53.98;101034.38;5026538;28;20536;-52
2022/07/06 06:13:14;;;;;;;0.40;0.20;;;;;;;21.12;53.64;101033.63;5030004;28;20463;-52
2022/07/06 06:15:41;;;;;;;0.40;0.20;;;;;;;21.23;53.25;101037.41;5026295;28;20478;-52
2022/07/06 06:18:07;;;;;;;0.40;0.20;;;;;;;21.51;53.00;101043.84;5022790;28;20448;-53
2022/07/06 06:20:34;;;;;;;0.40;0.20;;;;;;;20.83;54.84;101030.84;5026157;28;20483;-52
2022/07/06 06:23:04;;;;;;;0.40;0.20;;;;;;;21.64;53.30;101033.13;5029266;28;20539;-52
2022/07/06 06:25:35;;;;;;;0.40;0.20;;;;;;;22.28;51.36;101037.19;5027073;28;20478;-52
2022/07/06 06:28:04;;;;;;;0.40;0.20;;;;;;;21.68;51.17;101035.56;5022744;28;20895;-52
2022/07/06 06:30:31;;;;;;;0.40;0.20;;;;;;;22.14;51.30;101038.94;5023884;28;20445;-53
2022/07/06 06:33:08;;;;;;;0.40;0.20;;;;;;;21.38;52.37;101042.88;5029543;28;20838;-52
2022/07/06 06:35:36;;;;;;;0.40;0.20;;;;;;;22.05;50.68;101046.75;5032847;28;20483;-52
2022/07/06 06:38:03;;;;;;;0.40;0.20;;;;;;;22.17;50.47;101041.44;5023040;28;20815;-53
2022/07/06 06:40:30;;;;;;;0.40;0.20;;;;;;;21.62;51.59;101041.34;5049121;28;20479;-53
2022/07/06 06:42:56;;;;;;;0.40;0.20;;;;;;;22.18;49.93;101043.19;5035831;28;20966;-53
2022/07/06 06:45:23;;;;;;;0.40;0.20;;;;;;;21.96;50.74;101040.13;5022237;28;20476;-52
2022/07/06 06:47:49;;;;;;;0.40;0.20;;;;;;;21.72;51.31;101045.22;5035482;28;20546;-53
2022/07/06 06:50:16;;;;;;;0.40;0.20;;;;;;;21.74;50.57;101046.00;5022046;28;20535;-53
2022/07/06 06:52:42;;;;;;;0.40;0.20;;;;;;;21.85;50.94;101053.47;5027816;28;20452;-53
2022/07/06 06:55:09;;;;;;;0.40;0.20;;;;;;;21.72;51.30;101061.47;5029080;28;20464;-53
2022/07/06 06:57:35;;;;;;;0.40;0.20;;;;;;;21.55;51.27;101054.41;5023936;28;20500;-53
2022/07/06 07:00:03;;;;;;;8.30;2.40;;;;;;;21.50;51.46;101051.09;5021840;28;21007;-53
2022/07/06 07:02:30;;;;;;;0.40;0.20;;;;;;;21.57;51.76;101057.88;5026922;28;20464;-53
2022/07/06 07:04:56;;;;;;;0.40;0.20;;;;;;;21.84;51.07;101059.84;5030310;28;21066;-53
2022/07/06 07:07:23;;;;;;;0.40;0.20;;;;;;;21.41;52.13;101057.09;5026922;28;20455;-53
2022/07/06 07:09:49;;;;;;;0.40;0.20;;;;;;;21.34;52.73;101065.66;5028381;28;20451;-53
2022/07/06 07:12:16;;;;;;;0.40;0.20;;;;;;;21.35;53.17;101062.88;5024466;28;20451;-53
2022/07/06 07:14:44;;;;;;;0.40;0.20;;;;;;;21.68;51.88;101068.06;5022159;28;20452;-53
2022/07/06 07:17:11;;;;;;;0.40;0.20;;;;;;;21.57;52.03;101070.56;5025424;28;20945;-53
2022/07/06 07:19:38;;;;;;;0.40;0.20;;;;;;;21.49;52.13;101068.31;5028052;28;20540;-53
2022/07/06 07:22:04;;;;;;;0.40;0.20;;;;;;;21.10;52.29;101062.56;5023953;28;20499;-53
2022/07/06 07:24:31;;;;;;;0.40;0.20;;;;;;;21.33;53.20;101061.22;5021434;28;20456;-53
2022/07/06 07:26:58;;;;;;;0.40;0.20;;;;;;;21.40;52.36;101070.72;5025265;28;20452;-53
2022/07/06 07:29:24;;;;;;;0.40;0.20;;;;;;;21.36;51.65;101061.91;5028198;28;20977;-53
2022/07/06 07:31:52;;;;;;;0.40;0.20;;;;;;;21.33;51.60;101063.94;5024705;28;20881;-53
2022/07/06 07:34:19;;;;;;;0.40;0.20;;;;;;;20.89;52.90;101065.59;5024907;28;20509;-52
2022/07/06 07:36:45;;;;;;;0.40;0.20;;;;;;;21.23;51.52;101069.84;5025263;28;20480;-52
2022/07/06 07:39:12;;;;;;;0.40;0.20;;;;;;;20.96;51.53;101058.84;5034907;28;20525;-52
2022/07/06 07:41:38;;;;;;;0.40;0.20;;;;;;;20.88;51.80;101061.16;5044485;28;20492;-53
2022/07/06 07:44:04;;;;;;;0.40;0.20;;;;;;;21.18;51.09;101060.28;5021335;28;20830;-53
2022/07/06 07:46:31;;;;;;;0.40;0.20;;;;;;;21.40;50.85;101062.59;5029717;28;20471;-53
2022/07/06 07:48:58;;;;;;;0.40;0.20;;;;;;;21.00;51.57;101068.56;5030880;28;20444;-52
2022/07/06 07:51:24;;;;;;;0.40;0.20;;;;;;;21.47;49.99;101069.38;5025384;28;20451;-52
2022/07/06 07:53:51;;;;;;;0.40;0.20;;;;;;;21.18;51.24;101063.88;5020975;28;20458;-54
2022/07/06 07:56:18;;;;;;;0.40;0.20;;;;;;;21.43;50.58;101076.81;5023583;28;20468;-52
2022/07/06 07:58:44;;;;;;;0.40;0.20;;;;;;;21.24;50.50;101062.63;5027696;28;20452;-53
2022/07/06 08:01:11;;;;;;;0.40;0.20;;;;;;;21.49;49.03;101067.44;5025078;28;20498;-52
2022/07/06 08:03:37;;;;;;;0.40;0.20;;;;;;;21.61;47.84;101063.09;5020643;28;20452;-53
2022/07/06 08:06:04;;;;;;;0.40;0.20;;;;;;;21.51;48.54;101062.78;5033928;28;20471;-53
2022/07/06 08:08:30;;;;;;;0.40;0.20;;;;;;;21.58;48.12;101062.34;5016288;28;20935;-53
2022/07/06 08:10:57;;;;;;;0.40;0.20;;;;;;;21.66;47.98;101071.81;5025207;28;20448;-53
2022/07/06 08:13:43;;;;;;;0.40;0.20;;;;;;;21.64;48.25;101068.31;5021633;28;20455;-54
2022/07/06 08:16:10;;;;;;;0.40;0.30;;;;;;;21.69;47.86;101056.25;5020481;28;20475;-53
2022/07/06 08:18:36;;;;;;;0.40;0.20;;;;;;;21.88;47.21;101058.66;5026904;28;20466;-53
2022/07/06 08:21:03;;;;;;;0.40;0.30;;;;;;;21.52;47.54;101065.44;5027006;28;20498;-52
2022/07/06 08:23:50;;;;;;;0.40;0.20;;;;;;;21.88;46.96;101058.66;5024326;28;20456;-53
2022/07/06 08:26:17;;;;;;;0.40;0.20;;;;;;;21.92;47.12;101057.50;5020138;28;21077;-53
2022/07/06 08:28:44;;;;;;;0.40;0.20;;;;;;;22.35;45.60;101063.78;5023237;28;20531;-54
2022/07/06 08:31:10;;;;;;;0.40;0.20;;;;;;;21.25;47.64;101065.28;5026775;28;20999;-53
2022/07/06 08:33:57;;;;;;;0.40;0.20;;;;;;;22.17;46.23;101060.41;5027534;28;20444;-53
2022/07/06 08:36:24;;;;;;;0.40;0.30;;;;;;;22.31;45.04;101058.66;5026164;28;20480;-53
2022/07/06 08:38:50;;;;;;;0.40;0.20;;;;;;;22.21;44.14;101062.94;5028189;28;20458;-53
2022/07/06 08:41:20;;;;;;;0.40;0.20;;;;;;;22.20;44.48;101063.88;5045781;28;20491;-53
2022/07/06 08:43:53;;;;;;;0.40;0.20;;;;;;;22.35;44.80;101055.66;5019963;28;20820;-53
2022/07/06 08:46:21;;;;;;;0.40;0.20;;;;;;;22.39;45.10;101053.59;5028445;28;20483;-53
2022/07/06 08:48:48;;;;;;;0.40;0.20;;;;;;;21.97;45.18;101055.38;5030988;28;20487;-53
2022/07/06 08:51:15;;;;;;;0.40;0.20;;;;;;;22.75;43.04;101053.88;5022763;28;20448;-53
2022/07/06 08:53:42;;;;;;;0.40;0.20;;;;;;;22.98;43.51;101057.78;5019647;28;20539;-54
2022/07/06 08:56:09;;;;;;;0.40;0.20;;;;;;;22.65;42.66;101060.88;5024171;28;20473;-54
2022/07/06 08:58:36;;;;;;;0.40;0.20;;;;;;;22.23;45.11;101063.72;5026667;28;20447;-53
2022/07/06 09:01:02;;;;;;;0.70;0.70;;;;;;;22.48;44.66;101055.72;5022458;28;21011;-53
2022/07/06 09:03:29;;;;;;;0.40;0.20;;;;;;;22.50;44.31;101056.50;5019551;28;20907;-53
2022/07/06 09:06:01;;;;;;;0.40;0.20;;;;;;;22.41;43.76;101060.66;5023097;28;20468;-53
2022/07/06 09:08:30;;;;;;;0.40;0.20;;;;;;;23.17;42.08;101059.25;5029194;28;20942;-53
2022/07/06 09:10:56;;;;;;;0.40;0.20;;;;;;;23.33;41.75;101055.34;5024146;28;20953;-53
2022/07/06 09:13:23;;;;;;;0.40;0.20;;;;;;;22.73;43.14;101060.38;5019520;28;20454;-52
2022/07/06 09:15:50;;;;;;;0.40;0.20;;;;;;;23.42;42.04;101058.38;5021985;28;20472;-53
2022/07/06 09:18:38;;;;;;;0.40;0.20;;;;;;;23.08;42.08;101062.56;5020300;28;21040;-53
2022/07/06 09:21:05;;;;;;;0.40;0.20;;;;;;;22.61;43.26;101063.88;5019779;28;20492;-53
2022/07/06 09:23:32;;;;;;;0.40;0.20;;;;;;;22.10;44.85;101060.91;5025320;28;20510;-52
2022/07/06 09:26:05;;;;;;;0.40;0.20;;;;;;;22.76;44.19;101071.88;5026564;28;20546;-54
2022/07/06 09:28:45;;;;;;;0.40;0.20;;;;;;;22.42;44.65;101062.41;5021343;28;20448;-53
2022/07/06 09:31:11;;;;;;;1.60;1.50;;;;;;;22.94;43.40;101075.22;5019457;28;20531;-54
2022/07/06 09:33:59;;;;;;;0.40;0.20;;;;;;;22.45;44.85;101066.75;5023525;28;20496;-53
2022/07/06 09:36:47;;;;;;;0.67;0.67;;;;;;;22.68;43.79;101068.81;5012781;28;20476;-53
2022/07/06 09:39:17;;;;;;;0.40;0.20;;;;;;;22.68;43.84;101063.38;5033390;28;20453;-54
2022/07/06 09:41:45;;;;;;;0.40;0.20;;;;;;;23.23;43.07;101073.25;5041166;28;20491;-54
2022/07/06 09:44:12;;;;;;;0.40;0.20;;;;;;;22.56;43.09;101068.75;5018348;28;20630;-53
2022/07/06 09:46:43;;;;;;;0.40;0.20;;;;;;;22.83;42.32;101063.38;5027628;28;20475;-54
2022/07/06 09:49:09;;;;;;;0.40;0.20;;;;;;;22.87;42.67;101073.03;5026995;28;20449;-53
2022/07/06 09:51:37;;;;;;;0.40;0.20;;;;;;;23.03;41.99;101069.19;5024748;28;20620;-54
2022/07/06 09:54:07;;;;;;;0.40;0.20;;;;;;;23.20;39.97;101065.31;5019167;28;20448;-54
2022/07/06 09:56:38;;;;;;;0.40;0.20;;;;;;;22.73;42.70;101069.34;5019669;28;20503;-54
2022/07/06 09:59:11;;;;;;;0.40;0.20;;;;;;;23.50;42.08;101066.88;5019369;28;20900;-54
2022/07/06 10:01:39;;;;;;;0.40;0.20;;;;;;;23.79;41.80;101064.84;5018802;28;20555;-54
2022/07/06 10:04:12;;;;;;;0.40;0.30;;;;;;;23.99;40.60;101068.88;5029011;28;20447;-53
2022/07/06 10:06:40;;;;;;;0.40;0.20;;;;;;;22.88;42.35;101072.91;5029962;28;20563;-53
2022/07/06 10:09:08;;;;;;;0.40;0.20;;;;;;;22.98;41.95;101071.34;5021688;28;20943;-53
2022/07/06 10:11:47;;;;;;;0.40;0.20;;;;;;;22.66;42.02;101078.88;5018955;28;20888;-53
2022/07/06 10:14:17;;;;;;;0.40;0.20;;;;;;;23.52;41.52;101076.66;5020847;28;20483;-53
2022/07/06 10:16:45;;;;;;;0.40;0.20;;;;;;;23.08;43.04;101071.59;5025665;28;20468;-53
2022/07/06 10:19:13;;;;;;;0.40;0.20;;;;;;;23.14;41.97;101082.00;5024778;28;20444;-53
2022/07/06 10:21:41;;;;;;;0.40;0.20;;;;;;;22.97;42.65;101074.16;5018749;28;20491;-53
2022/07/06 10:24:09;;;;;;;0.40;0.30;;;;;;;23.59;41.11;101064.44;5019199;28;20567;-53
2022/07/06 10:26:36;;;;;;;0.40;0.20;;;;;;;22.89;41.04;101076.50;5018709;28;20479;-53
2022/07/06 10:29:04;;;;;;;0.53;0.47;;;;;;;23.34;41.33;101072.50;5019432;28;20449;-53
2022/07/06 10:31:32;;;;;;;0.40;0.20;;;;;;;22.99;41.85;101064.94;5024708;28;20444;-53
2022/07/06 10:34:01;;;;;;;0.40;0.20;;;;;;;22.97;42.20;101064.16;5026457;28;20451;-53
2022/07/06 10:36:28;;;;;;;0.40;0.20;;;;;;;23.50;40.14;101064.16;5023776;28;20602;-53
2022/07/06 10:38:55;;;;;;;0.40;0.20;;;;;;;23.21;39.85;101056.22;5028320;28;20451;-53
2022/07/06 10:41:32;;;;;;;0.40;0.20;;;;;;;23.50;41.57;101059.59;5043356;28;20487;-52
2022/07/06 10:44:15;;;;;;;0.40;0.20;;;;;;;23.33;40.56;101060.78;5018574;28;20466;-53
2022/07/06 10:46:50;;;;;;;0.40;0.20;;;;;;;23.84;40.48;101059.94;5026910;28;21004;-53
2022/07/06 10:49:17;;;;;;;0.40;0.20;;;;;;;24.36;40.76;101058.91;5025425;28;20444;-53
2022/07/06 10:52:04;;;;;;;0.40;0.20;;;;;;;24.02;40.48;101069.50;5025466;28;20447;-54
2022/07/06 10:54:39;;;;;;;0.40;0.20;;;;;;;23.81;40.28;101060.16;5021535;28;20454;-52
2022/07/06 10:57:14;;;;;;;0.50;0.40;;;;;;;23.19;41.84;101063.59;5022421;28;20845;-52
2022/07/06 10:59:59;;;;;;;0.40;0.20;;;;;;;24.33;38.41;101057.28;5023333;28;20805;-54
2022/07/06 11:02:26;;;;;;;0.40;0.20;;;;;;;24.12;39.24;101059.72;5023954;28;20501;-53
2022/07/06 11:04:52;;;;;;;0.40;0.20;;;;;;;23.53;38.43;101061.22;5031580;28;20472;-54
2022/07/06 11:07:20;;;;;;;0.40;0.30;;;;;;;24.12;37.96;101058.81;5030928;28;20458;-53
2022/07/06 11:09:58;;;;;;;0.40;0.20;;;;;;;23.49;39.43;101057.88;5030125;28;20448;-53
2022/07/06 11:12:25;;;;;;;0.40;0.20;;;;;;;24.34;39.04;101048.16;5024922;28;20444;-53
2022/07/06 11:14:52;;;;;;;0.40;0.20;;;;;;;23.55;40.41;101048.41;5028756;28;20473;-53
2022/07/06 11:17:19;;;;;;;0.40;0.20;;;;;;;23.92;39.00;101053.00;5026162;28;20481;-53
2022/07/06 11:19:57;;;;;;;0.40;0.20;;;;;;;23.40;39.08;101058.50;5022351;28;20447;-53
2022/07/06 11:22:26;;;;;;;0.40;0.20;;;;;;;23.96;37.88;101061.78;5022914;28;20480;-53
2022/07/06 11:24:55;;;;;;;0.40;0.20;;;;;;;23.77;38.34;101055.94;5028437;28;20476;-52
2022/07/06 11:27:23;;;;;;;0.40;0.20;;;;;;;24.74;36.78;101050.59;5028103;28;20969;-53
2022/07/06 11:29:49;;;;;;;0.40;0.20;;;;;;;23.38;39.67;101052.31;5028484;28;20461;-53
2022/07/06 11:32:23;;;;;;;0.40;0.20;;;;;;;23.81;39.00;101050.19;5028305;28;20793;-53